sensor_id;sensor_type;location;lat;lon;timestamp;temperature;humidity
49901;DHT22;35789;48.414;12.768;2022-10-31T00:00:00;8.5;99.9
49901;DHT22;35789;48.414;12.768;2022-10-31T00:05:00;8.4;99.9
49901;DHT22;35789;48.414;12.768;2022-10-31T00:10:00;8.5;99.9
49901;DHT22;35789;48.414;12.768;2022-10-31T00:15:00;8.5;99.9
49901;DHT22;35789;48.414;12.768;2022-10-31T00:20:00;8.4;99.9
49901;DHT22;35789;48.414;12.768;2022-10-31T00:25:00;8.5;99.9
49901;DHT22;35789;48.414;12.768;2022-10-31T00:30:00;8.5;99.9
49901;DHT22;35789;48.414;12.768;2022-10-31T00:35:00;8.5;99.9
49901;DHT22;35789;48.414;12.768;2022-10-31T00:40:00;8.4;99.9
49901;DHT22;35789;48.414;12.768;2022-10-31T00:45:00;8.4;99.9
49901;DHT22;35789;48.414;12.768;2022-10-31T00:50:00;8.4;99.9
49901;DHT22;35789;48.414;12.768;2022-10-31T00:55:00;unavailable;unavailable
49901;DHT22;35789;48.414;12.768;2022-10-31T01:00:00;8.4;99.9
49901;DHT22;35789;48.414;12.768;2022-10-31T01:05:00;8.5;99.9
49901;DHT22;35789;48.414;12.768;2022-10-31T01:10:00;8.5;99.9
49901;DHT22;35789;48.414;12.768;2022-10-31T01:15:00;8.4;99.9
49901;DHT22;35789;48.414;12.768;2022-10-31T01:20:00;8.4;99.9
49901;DHT22;35789;48.414;12.768;2022-10-31T01:25:00;8.2;99.9
49901;DHT22;35789;48.414;12.768;2022-10-31T01:30:00;8.2;99.9
49901;DHT22;35789;48.414;12.768;2022-10-31T01:35:00;8.3;99.9
49901;DHT22;35789;48.414;12.768;2022-10-31T01:40:00;8.2;99.9
49901;DHT22;35789;48.414;12.768;2022-10-31T01:45:00;8.2;99.9
49901;DHT22;35789;48.414;12.768;2022-10-31T01:50:00;8.1;99.9
49901;DHT22;35789;48.414;12.768;2022-10-31T01:55:01;8.0;99.9
49901;DHT22;35789;48.414;12.768;2022-10-31T02:00:01;8.1;99.9
49901;DHT22;35789;48.414;12.768;2022-10-31T02:05:00;8.0;99.9
49901;DHT22;35789;48.414;12.768;2022-10-31T02:10:00;8.0;99.9
49901;DHT22;35789;48.414;12.768;2022-10-31T02:15:00;8.1;99.9
49901;DHT22;35789;48.414;12.768;2022-10-31T02:20:02;8.0;99.9
49901;DHT22;35789;48.414;12.768;2022-10-31T02:25:03;7.9;99.9
49901;DHT22;35789;48.414;12.768;2022-10-31T02:30:03;7.9;99.9
49901;DHT22;35789;48.414;12.768;2022-10-31T02:35:03;7.9;99.9
49901;DHT22;35789;48.414;12.768;2022-10-31T02:40:02;7.9;99.9
49901;DHT22;35789;48.414;12.768;2022-10-31T02:45:00;8.0;99.9
49901;DHT22;35789;48.414;12.768;2022-10-31T02:50:00;8.0;99.9
49901;DHT22;35789;48.414;12.768;2022-10-31T02:55:08;7.9;99.9
49901;DHT22;35789;48.414;12.768;2022-10-31T03:00:00;7.7;99.9
49901;DHT22;35789;48.414;12.768;2022-10-31T03:05:06;7.8;99.9
49901;DHT22;35789;48.414;12.768;2022-10-31T03:10:02;7.9;99.9
49901;DHT22;35789;48.414;12.768;2022-10-31T03:15:02;8.0;99.9
49901;DHT22;35789;48.414;12.768;2022-10-31T03:20:00;8.0;99.9
49901;DHT22;35789;48.414;12.768;2022-10-31T03:25:02;8.0;99.9
49901;DHT22;35789;48.414;12.768;2022-10-31T03:30:01;8.0;99.9
49901;DHT22;35789;48.414;12.768;2022-10-31T03:35:00;8.0;99.9
49901;DHT22;35789;48.414;12.768;2022-10-31T03:40:00;8.0;99.9
49901;DHT22;35789;48.414;12.768;2022-10-31T03:45:01;7.9;99.9
49901;DHT22;35789;48.414;12.768;2022-10-31T03:50:00;7.9;99.9
49901;DHT22;35789;48.414;12.768;2022-10-31T03:55:02;8.0;99.9
49901;DHT22;35789;48.414;12.768;2022-10-31T04:00:02;8.0;99.9
49901;DHT22;35789;48.414;12.768;2022-10-31T04:05:00;7.9;99.9
49901;DHT22;35789;48.414;12.768;2022-10-31T04:10:00;7.7;99.9
49901;DHT22;35789;48.414;12.768;2022-10-31T04:15:00;7.8;99.9
49901;DHT22;35789;48.414;12.768;2022-10-31T04:20:00;7.7;99.9
49901;DHT22;35789;48.414;12.768;2022-10-31T04:25:00;7.7;99.9
49901;DHT22;35789;48.414;12.768;2022-10-31T04:30:00;7.9;99.9
49901;DHT22;35789;48.414;12.768;2022-10-31T04:35:00;7.9;99.9
49901;DHT22;35789;48.414;12.768;2022-10-31T04:40:00;8.0;99.9
49901;DHT22;35789;48.414;12.768;2022-10-31T04:45:00;8.0;99.9
49901;DHT22;35789;48.414;12.768;2022-10-31T04:50:00;8.0;99.9
49901;DHT22;35789;48.414;12.768;2022-10-31T04:55:00;7.9;99.9
49901;DHT22;35789;48.414;12.768;2022-10-31T05:00:00;7.8;99.9
49901;DHT22;35789;48.414;12.768;2022-10-31T05:05:00;7.7;99.9
49901;DHT22;35789;48.414;12.768;2022-10-31T05:10:00;7.7;99.9
49901;DHT22;35789;48.414;12.768;2022-10-31T05:15:00;7.6;99.9
49901;DHT22;35789;48.414;12.768;2022-10-31T05:20:00;7.6;99.9
49901;DHT22;35789;48.414;12.768;2022-10-31T05:25:00;7.6;99.9
49901;DHT22;35789;48.414;12.768;2022-10-31T05:30:00;unavailable;unavailable
49901;DHT22;35789;48.414;12.768;2022-10-31T05:35:00;7.5;99.9
49901;DHT22;35789;48.414;12.768;2022-10-31T05:40:00;7.5;99.9
49901;DHT22;35789;48.414;12.768;2022-10-31T05:45:00;7.5;99.9
49901;DHT22;35789;48.414;12.768;2022-10-31T05:50:00;7.4;99.9
49901;DHT22;35789;48.414;12.768;2022-10-31T05:55:00;7.3;99.9
49901;DHT22;35789;48.414;12.768;2022-10-31T06:00:00;7.3;99.9
49901;DHT22;35789;48.414;12.768;2022-10-31T06:05:00;7.3;99.9
49901;DHT22;35789;48.414;12.768;2022-10-31T06:10:00;7.3;99.9
49901;DHT22;35789;48.414;12.768;2022-10-31T06:15:00;7.3;99.9
49901;DHT22;35789;48.414;12.768;2022-10-31T06:20:00;7.2;99.9
49901;DHT22;35789;48.414;12.768;2022-10-31T06:25:00;7.1;99.9
49901;DHT22;35789;48.414;12.768;2022-10-31T06:30:00;7.2;99.9
49901;DHT22;35789;48.414;12.768;2022-10-31T06:35:00;7.3;99.9
49901;DHT22;35789;48.414;12.768;2022-10-31T06:40:00;7.3;99.9
49901;DHT22;35789;48.414;12.768;2022-10-31T06:45:00;7.3;99.9
49901;DHT22;35789;48.414;12.768;2022-10-31T06:50:00;7.4;99.9
49901;DHT22;35789;48.414;12.768;2022-10-31T06:55:00;7.4;99.9
49901;DHT22;35789;48.414;12.768;2022-10-31T07:00:00;7.6;99.9
49901;DHT22;35789;48.414;12.768;2022-10-31T07:05:00;7.7;99.9
49901;DHT22;35789;48.414;12.768;2022-10-31T07:10:00;7.7;99.9
49901;DHT22;35789;48.414;12.768;2022-10-31T07:15:00;7.8;99.9
49901;DHT22;35789;48.414;12.768;2022-10-31T07:20:00;7.8;99.9
49901;DHT22;35789;48.414;12.768;2022-10-31T07:25:00;7.7;99.9
49901;DHT22;35789;48.414;12.768;2022-10-31T07:30:00;7.8;99.9
49901;DHT22;35789;48.414;12.768;2022-10-31T07:35:00;7.8;99.9
49901;DHT22;35789;48.414;12.768;2022-10-31T07:40:00;7.9;99.9
49901;DHT22;35789;48.414;12.768;2022-10-31T07:45:00;7.9;99.9
49901;DHT22;35789;48.414;12.768;2022-10-31T07:50:00;8.0;99.9
49901;DHT22;35789;48.414;12.768;2022-10-31T07:55:00;8.1;99.9
49901;DHT22;35789;48.414;12.768;2022-10-31T08:00:00;8.2;99.9
49901;DHT22;35789;48.414;12.768;2022-10-31T08:05:00;8.4;99.9
49901;DHT22;35789;48.414;12.768;2022-10-31T08:10:00;8.5;99.9
49901;DHT22;35789;48.414;12.768;2022-10-31T08:15:00;8.7;99.9
49901;DHT22;35789;48.414;12.768;2022-10-31T08:20:00;8.8;99.9
49901;DHT22;35789;48.414;12.768;2022-10-31T08:25:00;9.0;99.9
49901;DHT22;35789;48.414;12.768;2022-10-31T08:30:00;9.1;99.9
49901;DHT22;35789;48.414;12.768;2022-10-31T08:35:00;9.3;99.9
49901;DHT22;35789;48.414;12.768;2022-10-31T08:40:00;9.4;99.9
49901;DHT22;35789;48.414;12.768;2022-10-31T08:45:00;9.6;99.9
49901;DHT22;35789;48.414;12.768;2022-10-31T08:50:00;9.9;99.9
49901;DHT22;35789;48.414;12.768;2022-10-31T08:55:00;unavailable;unavailable
49901;DHT22;35789;48.414;12.768;2022-10-31T09:00:00;10.2;99.9
49901;DHT22;35789;48.414;12.768;2022-10-31T09:05:00;10.4;99.9
49901;DHT22;35789;48.414;12.768;2022-10-31T09:10:00;10.5;99.9
49901;DHT22;35789;48.414;12.768;2022-10-31T09:15:00;10.6;99.9
49901;DHT22;35789;48.414;12.768;2022-10-31T09:20:00;10.9;99.9
49901;DHT22;35789;48.414;12.768;2022-10-31T09:25:00;10.9;99.9
49901;DHT22;35789;48.414;12.768;2022-10-31T09:30:00;11.1;99.9
49901;DHT22;35789;48.414;12.768;2022-10-31T09:35:00;11.2;99.9
49901;DHT22;35789;48.414;12.768;2022-10-31T09:40:00;11.4;99.9
49901;DHT22;35789;48.414;12.768;2022-10-31T09:45:01;11.7;99.9
49901;DHT22;35789;48.414;12.768;2022-10-31T09:50:06;12.0;99.9
49901;DHT22;35789;48.414;12.768;2022-10-31T09:55:02;12.4;99.9
49901;DHT22;35789;48.414;12.768;2022-10-31T10:00:00;12.4;99.9
49901;DHT22;35789;48.414;12.768;2022-10-31T10:05:00;12.4;99.9
49901;DHT22;35789;48.414;12.768;2022-10-31T10:10:00;12.5;99.9
49901;DHT22;35789;48.414;12.768;2022-10-31T10:15:05;12.4;99.9
49901;DHT22;35789;48.414;12.768;2022-10-31T10:20:05;12.6;99.9
49901;DHT22;35789;48.414;12.768;2022-10-31T10:25:02;12.9;99.9
49901;DHT22;35789;48.414;12.768;2022-10-31T10:30:01;13.3;99.9
49901;DHT22;35789;48.414;12.768;2022-10-31T10:35:01;13.3;99.9
49901;DHT22;35789;48.414;12.768;2022-10-31T10:40:02;13.5;99.9
49901;DHT22;35789;48.414;12.768;2022-10-31T10:45:00;13.7;99.9
49901;DHT22;35789;48.414;12.768;2022-10-31T10:50:00;14.0;99.9
49901;DHT22;35789;48.414;12.768;2022-10-31T10:55:02;13.9;99.9
49901;DHT22;35789;48.414;12.768;2022-10-31T11:00:00;14.1;99.9
49901;DHT22;35789;48.414;12.768;2022-10-31T11:05:00;14.4;99.9
49901;DHT22;35789;48.414;12.768;2022-10-31T11:10:04;14.4;99.9
49901;DHT22;35789;48.414;12.768;2022-10-31T11:15:01;14.4;99.9
49901;DHT22;35789;48.414;12.768;2022-10-31T11:20:01;14.4;99.9
49901;DHT22;35789;48.414;12.768;2022-10-31T11:25:00;14.5;99.9
49901;DHT22;35789;48.414;12.768;2022-10-31T11:30:04;14.6;99.9
49901;DHT22;35789;48.414;12.768;2022-10-31T11:35:00;14.5;99.9
49901;DHT22;35789;48.414;12.768;2022-10-31T11:40:02;14.8;99.9
49901;DHT22;35789;48.414;12.768;2022-10-31T11:45:00;14.7;99.9
49901;DHT22;35789;48.414;12.768;2022-10-31T11:50:00;14.6;99.9
49901;DHT22;35789;48.414;12.768;2022-10-31T11:55:01;14.9;99.9
49901;DHT22;35789;48.414;12.768;2022-10-31T12:00:00;15.0;99.9
49901;DHT22;35789;48.414;12.768;2022-10-31T12:05:02;14.9;99.9
49901;DHT22;35789;48.414;12.768;2022-10-31T12:10:00;15.2;99.9
49901;DHT22;35789;48.414;12.768;2022-10-31T12:15:03;15.3;99.9
49901;DHT22;35789;48.414;12.768;2022-10-31T12:20:02;15.5;99.9
49901;DHT22;35789;48.414;12.768;2022-10-31T12:25:04;15.5;99.9
49901;DHT22;35789;48.414;12.768;2022-10-31T12:30:04;15.6;99.9
49901;DHT22;35789;48.414;12.768;2022-10-31T12:40:03;15.6;99.9
49901;DHT22;35789;48.414;12.768;2022-10-31T12:45:04;15.6;99.9
49901;DHT22;35789;48.414;12.768;2022-10-31T12:50:02;15.6;99.9
49901;DHT22;35789;48.414;12.768;2022-10-31T12:55:04;15.4;99.9
49901;DHT22;35789;48.414;12.768;2022-10-31T13:00:01;15.4;99.9
49901;DHT22;35789;48.414;12.768;2022-10-31T13:05:01;15.3;99.9
49901;DHT22;35789;48.414;12.768;2022-10-31T13:10:01;15.6;99.9
49901;DHT22;35789;48.414;12.768;2022-10-31T13:15:02;15.6;99.9
49901;DHT22;35789;48.414;12.768;2022-10-31T13:20:05;15.4;99.9
49901;DHT22;35789;48.414;12.768;2022-10-31T13:25:02;15.4;99.9
49901;DHT22;35789;48.414;12.768;2022-10-31T13:30:01;15.3;99.9
49901;DHT22;35789;48.414;12.768;2022-10-31T13:35:00;15.4;99.9
49901;DHT22;35789;48.414;12.768;2022-10-31T13:40:11;15.4;99.9
49901;DHT22;35789;48.414;12.768;2022-10-31T13:45:06;15.2;99.9
49901;DHT22;35789;48.414;12.768;2022-10-31T13:50:04;15.0;99.9
49901;DHT22;35789;48.414;12.768;2022-10-31T13:55:00;14.9;99.9
49901;DHT22;35789;48.414;12.768;2022-10-31T14:00:01;14.8;99.9
49901;DHT22;35789;48.414;12.768;2022-10-31T14:05:00;14.8;99.9
49901;DHT22;35789;48.414;12.768;2022-10-31T14:10:01;14.8;99.9
49901;DHT22;35789;48.414;12.768;2022-10-31T14:15:02;14.7;99.9
49901;DHT22;35789;48.414;12.768;2022-10-31T14:20:02;14.6;99.9
49901;DHT22;35789;48.414;12.768;2022-10-31T14:25:00;14.5;99.9
49901;DHT22;35789;48.414;12.768;2022-10-31T14:30:07;14.5;99.9
49901;DHT22;35789;48.414;12.768;2022-10-31T14:35:00;14.4;99.9
49901;DHT22;35789;48.414;12.768;2022-10-31T14:40:03;14.4;99.9
49901;DHT22;35789;48.414;12.768;2022-10-31T14:50:06;14.3;99.9
49901;DHT22;35789;48.414;12.768;2022-10-31T14:55:00;14.3;99.9
49901;DHT22;35789;48.414;12.768;2022-10-31T15:00:01;14.2;99.9
49901;DHT22;35789;48.414;12.768;2022-10-31T15:05:00;14.2;99.9
49901;DHT22;35789;48.414;12.768;2022-10-31T15:10:00;14.2;99.9
49901;DHT22;35789;48.414;12.768;2022-10-31T15:20:00;14.0;99.9
49901;DHT22;35789;48.414;12.768;2022-10-31T15:25:00;14.0;99.9
49901;DHT22;35789;48.414;12.768;2022-10-31T15:30:00;13.9;99.9
49901;DHT22;35789;48.414;12.768;2022-10-31T15:35:00;13.9;99.9
49901;DHT22;35789;48.414;12.768;2022-10-31T15:40:05;unavailable;unavailable
49901;DHT22;35789;48.414;12.768;2022-10-31T15:45:00;13.7;99.9
49901;DHT22;35789;48.414;12.768;2022-10-31T15:50:00;13.6;99.9
49901;DHT22;35789;48.414;12.768;2022-10-31T15:55:00;13.6;99.9
49901;DHT22;35789;48.414;12.768;2022-10-31T16:00:00;13.5;99.9
49901;DHT22;35789;48.414;12.768;2022-10-31T16:05:00;13.4;99.9
49901;DHT22;35789;48.414;12.768;2022-10-31T16:10:00;13.4;99.9
49901;DHT22;35789;48.414;12.768;2022-10-31T16:15:00;13.2;99.9
49901;DHT22;35789;48.414;12.768;2022-10-31T16:20:00;13.2;99.9
49901;DHT22;35789;48.414;12.768;2022-10-31T16:25:01;13.1;99.9
49901;DHT22;35789;48.414;12.768;2022-10-31T16:30:00;13.0;99.9
49901;DHT22;35789;48.414;12.768;2022-10-31T16:35:01;12.9;99.9
49901;DHT22;35789;48.414;12.768;2022-10-31T16:40:00;12.9;99.9
49901;DHT22;35789;48.414;12.768;2022-10-31T16:45:00;12.9;99.9
49901;DHT22;35789;48.414;12.768;2022-10-31T16:50:00;12.8;99.9
49901;DHT22;35789;48.414;12.768;2022-10-31T16:55:00;12.7;99.9
49901;DHT22;35789;48.414;12.768;2022-10-31T17:00:00;12.5;99.9
49901;DHT22;35789;48.414;12.768;2022-10-31T17:05:00;12.5;99.9
49901;DHT22;35789;48.414;12.768;2022-10-31T17:10:01;12.4;99.9
49901;DHT22;35789;48.414;12.768;2022-10-31T17:15:00;12.4;99.9
49901;DHT22;35789;48.414;12.768;2022-10-31T17:20:00;12.3;99.9
49901;DHT22;35789;48.414;12.768;2022-10-31T17:25:00;12.3;99.9
49901;DHT22;35789;48.414;12.768;2022-10-31T17:30:00;12.2;99.9
49901;DHT22;35789;48.414;12.768;2022-10-31T17:35:00;12.1;99.9
49901;DHT22;35789;48.414;12.768;2022-10-31T17:40:00;12.1;99.9
49901;DHT22;35789;48.414;12.768;2022-10-31T17:45:00;12.1;99.9
49901;DHT22;35789;48.414;12.768;2022-10-31T17:50:00;12.1;99.9
49901;DHT22;35789;48.414;12.768;2022-10-31T17:55:00;12.1;99.9
49901;DHT22;35789;48.414;12.768;2022-10-31T18:00:00;12.2;99.9
49901;DHT22;35789;48.414;12.768;2022-10-31T18:05:00;12.3;99.9
49901;DHT22;35789;48.414;12.768;2022-10-31T18:10:00;12.4;99.9
49901;DHT22;35789;48.414;12.768;2022-10-31T18:15:00;12.4;99.9
49901;DHT22;35789;48.414;12.768;2022-10-31T18:20:00;12.5;99.9
49901;DHT22;35789;48.414;12.768;2022-10-31T18:25:00;12.4;99.9
49901;DHT22;35789;48.414;12.768;2022-10-31T18:30:00;12.4;99.9
49901;DHT22;35789;48.414;12.768;2022-10-31T18:35:00;12.2;99.9
49901;DHT22;35789;48.414;12.768;2022-10-31T18:40:00;12.1;99.9
49901;DHT22;35789;48.414;12.768;2022-10-31T18:45:00;12.0;99.9
49901;DHT22;35789;48.414;12.768;2022-10-31T18:50:00;11.9;99.9
49901;DHT22;35789;48.414;12.768;2022-10-31T18:55:00;11.8;99.9
49901;DHT22;35789;48.414;12.768;2022-10-31T19:00:00;11.7;99.9
49901;DHT22;35789;48.414;12.768;2022-10-31T19:05:00;11.7;99.9
49901;DHT22;35789;48.414;12.768;2022-10-31T19:10:00;unavailable;unavailable
49901;DHT22;35789;48.414;12.768;2022-10-31T19:15:00;11.6;99.9
49901;DHT22;35789;48.414;12.768;2022-10-31T19:20:00;11.6;99.9
49901;DHT22;35789;48.414;12.768;2022-10-31T19:25:00;11.5;99.9
49901;DHT22;35789;48.414;12.768;2022-10-31T19:30:00;11.5;99.9
49901;DHT22;35789;48.414;12.768;2022-10-31T19:35:00;11.6;99.9
49901;DHT22;35789;48.414;12.768;2022-10-31T19:40:00;11.5;99.9
49901;DHT22;35789;48.414;12.768;2022-10-31T19:45:00;11.5;99.9
49901;DHT22;35789;48.414;12.768;2022-10-31T19:50:00;11.4;99.9
49901;DHT22;35789;48.414;12.768;2022-10-31T19:55:00;11.2;99.9
49901;DHT22;35789;48.414;12.768;2022-10-31T20:00:00;11.1;99.9
49901;DHT22;35789;48.414;12.768;2022-10-31T20:05:00;11.0;99.9
49901;DHT22;35789;48.414;12.768;2022-10-31T20:10:00;10.8;99.9
49901;DHT22;35789;48.414;12.768;2022-10-31T20:15:00;10.8;99.9
49901;DHT22;35789;48.414;12.768;2022-10-31T20:20:00;10.6;99.9
49901;DHT22;35789;48.414;12.768;2022-10-31T20:25:00;10.5;99.9
49901;DHT22;35789;48.414;12.768;2022-10-31T20:30:00;10.4;99.9
49901;DHT22;35789;48.414;12.768;2022-10-31T20:35:00;10.3;99.9
49901;DHT22;35789;48.414;12.768;2022-10-31T20:40:00;10.3;99.9
49901;DHT22;35789;48.414;12.768;2022-10-31T20:45:00;10.2;99.9
49901;DHT22;35789;48.414;12.768;2022-10-31T20:50:00;10.1;99.9
49901;DHT22;35789;48.414;12.768;2022-10-31T20:55:00;10.0;99.9
49901;DHT22;35789;48.414;12.768;2022-10-31T21:00:00;9.8;99.9
49901;DHT22;35789;48.414;12.768;2022-10-31T21:05:00;9.7;99.9
49901;DHT22;35789;48.414;12.768;2022-10-31T21:10:00;9.5;99.9
49901;DHT22;35789;48.414;12.768;2022-10-31T21:15:00;9.4;99.9
49901;DHT22;35789;48.414;12.768;2022-10-31T21:20:00;9.3;99.9
49901;DHT22;35789;48.414;12.768;2022-10-31T21:25:00;9.3;99.9
49901;DHT22;35789;48.414;12.768;2022-10-31T21:30:00;9.2;99.9
49901;DHT22;35789;48.414;12.768;2022-10-31T21:35:00;9.1;99.9
49901;DHT22;35789;48.414;12.768;2022-10-31T21:40:00;9.0;99.9
49901;DHT22;35789;48.414;12.768;2022-10-31T21:45:00;9.0;99.9
49901;DHT22;35789;48.414;12.768;2022-10-31T21:50:00;8.9;99.9
49901;DHT22;35789;48.414;12.768;2022-10-31T21:55:00;8.8;99.9
49901;DHT22;35789;48.414;12.768;2022-10-31T22:00:00;8.7;99.9
49901;DHT22;35789;48.414;12.768;2022-10-31T22:05:00;8.6;99.9
49901;DHT22;35789;48.414;12.768;2022-10-31T22:10:00;8.6;99.9
49901;DHT22;35789;48.414;12.768;2022-10-31T22:15:00;8.5;99.9
49901;DHT22;35789;48.414;12.768;2022-10-31T22:20:00;8.4;99.9
49901;DHT22;35789;48.414;12.768;2022-10-31T22:25:00;8.3;99.9
49901;DHT22;35789;48.414;12.768;2022-10-31T22:30:00;8.3;99.9
49901;DHT22;35789;48.414;12.768;2022-10-31T22:35:00;8.1;99.9
49901;DHT22;35789;48.414;12.768;2022-10-31T22:40:00;8.0;99.9
49901;DHT22;35789;48.414;12.768;2022-10-31T22:45:00;8.0;99.9
49901;DHT22;35789;48.414;12.768;2022-10-31T22:50:00;7.9;99.9
49901;DHT22;35789;48.414;12.768;2022-10-31T22:55:00;7.9;99.9
49901;DHT22;35789;48.414;12.768;2022-10-31T23:00:00;7.9;99.9
49901;DHT22;35789;48.414;12.768;2022-10-31T23:05:00;7.8;99.9
49901;DHT22;35789;48.414;12.768;2022-10-31T23:10:00;7.7;99.9
49901;DHT22;35789;48.414;12.768;2022-10-31T23:15:00;7.6;99.9
49901;DHT22;35789;48.414;12.768;2022-10-31T23:20:00;7.7;99.9
49901;DHT22;35789;48.414;12.768;2022-10-31T23:25:00;7.8;99.9
49901;DHT22;35789;48.414;12.768;2022-10-31T23:30:00;7.8;99.9
49901;DHT22;35789;48.414;12.768;2022-10-31T23:35:00;7.8;99.9
49901;DHT22;35789;48.414;12.768;2022-10-31T23:40:00;7.9;99.9
49901;DHT22;35789;48.414;12.768;2022-10-31T23:45:00;8.0;99.9
49901;DHT22;35789;48.414;12.768;2022-10-31T23:50:00;8.1;99.9
49901;DHT22;35789;48.414;12.768;2022-10-31T23:55:00;8.2;99.9
